sensor_id;sensor_type;location;lat;lon;timestamp;temperature;humidity
4002;DHT22;2015;48.670;9.060;2024-03-25T00:01:43;4.10;99.90
4002;DHT22;2015;48.670;9.060;2024-03-25T00:04:14;4.10;99.90
4002;DHT22;2015;48.670;9.060;2024-03-25T00:06:45;4.00;99.90
4002;DHT22;2015;48.670;9.060;2024-03-25T00:09:16;4.00;99.90
4002;DHT22;2015;48.670;9.060;2024-03-25T00:11:47;4.00;99.90
4002;DHT22;2015;48.670;9.060;2024-03-25T00:14:18;4.00;99.90
4002;DHT22;2015;48.670;9.060;2024-03-25T00:16:49;4.10;99.90
4002;DHT22;2015;48.670;9.060;2024-03-25T00:19:20;4.00;99.90
4002;DHT22;2015;48.670;9.060;2024-03-25T00:21:51;4.00;99.90
4002;DHT22;2015;48.670;9.060;2024-03-25T00:24:22;4.00;99.90
4002;DHT22;2015;48.670;9.060;2024-03-25T00:26:53;4.00;99.90
4002;DHT22;2015;48.670;9.060;2024-03-25T00:29:24;4.00;99.90
4002;DHT22;2015;48.670;9.060;2024-03-25T00:31:54;4.00;99.90
4002;DHT22;2015;48.670;9.060;2024-03-25T00:34:26;4.00;99.90
4002;DHT22;2015;48.670;9.060;2024-03-25T00:36:57;4.00;99.90
4002;DHT22;2015;48.670;9.060;2024-03-25T00:39:28;4.00;99.90
4002;DHT22;2015;48.670;9.060;2024-03-25T00:41:59;4.00;99.90
4002;DHT22;2015;48.670;9.060;2024-03-25T00:44:30;4.00;99.90
4002;DHT22;2015;48.670;9.060;2024-03-25T00:47:01;4.00;99.90
4002;DHT22;2015;48.670;9.060;2024-03-25T00:49:32;4.00;99.90
4002;DHT22;2015;48.670;9.060;2024-03-25T00:52:03;3.90;99.90
4002;DHT22;2015;48.670;9.060;2024-03-25T00:54:34;3.90;99.90
4002;DHT22;2015;48.670;9.060;2024-03-25T00:57:04;3.90;99.90
4002;DHT22;2015;48.670;9.060;2024-03-25T00:59:35;4.00;99.90
4002;DHT22;2015;48.670;9.060;2024-03-25T01:02:06;4.00;99.90
4002;DHT22;2015;48.670;9.060;2024-03-25T01:04:37;4.00;99.90
4002;DHT22;2015;48.670;9.060;2024-03-25T01:07:08;4.00;99.90
4002;DHT22;2015;48.670;9.060;2024-03-25T01:09:39;3.90;99.90
4002;DHT22;2015;48.670;9.060;2024-03-25T01:12:10;3.80;99.90
4002;DHT22;2015;48.670;9.060;2024-03-25T01:14:40;3.90;99.90
4002;DHT22;2015;48.670;9.060;2024-03-25T01:17:11;3.80;99.90
4002;DHT22;2015;48.670;9.060;2024-03-25T01:19:42;3.90;99.90
4002;DHT22;2015;48.670;9.060;2024-03-25T01:22:13;3.90;99.90
4002;DHT22;2015;48.670;9.060;2024-03-25T01:24:44;3.90;99.90
4002;DHT22;2015;48.670;9.060;2024-03-25T01:27:15;3.90;99.90
4002;DHT22;2015;48.670;9.060;2024-03-25T01:29:46;3.90;99.90
4002;DHT22;2015;48.670;9.060;2024-03-25T01:32:16;4.00;99.90
4002;DHT22;2015;48.670;9.060;2024-03-25T01:34:47;4.00;99.90
4002;DHT22;2015;48.670;9.060;2024-03-25T01:37:18;4.00;99.90
4002;DHT22;2015;48.670;9.060;2024-03-25T01:39:49;4.00;99.90
4002;DHT22;2015;48.670;9.060;2024-03-25T01:42:20;4.10;99.90
4002;DHT22;2015;48.670;9.060;2024-03-25T01:44:50;4.10;99.90
4002;DHT22;2015;48.670;9.060;2024-03-25T01:47:21;4.10;99.90
4002;DHT22;2015;48.670;9.060;2024-03-25T01:49:52;4.10;99.90
4002;DHT22;2015;48.670;9.060;2024-03-25T01:52:26;4.10;99.90
4002;DHT22;2015;48.670;9.060;2024-03-25T01:54:58;4.10;99.90
4002;DHT22;2015;48.670;9.060;2024-03-25T01:57:28;4.10;99.90
4002;DHT22;2015;48.670;9.060;2024-03-25T01:59:59;4.10;99.90
4002;DHT22;2015;48.670;9.060;2024-03-25T02:02:31;4.20;99.90
4002;DHT22;2015;48.670;9.060;2024-03-25T02:05:03;4.20;99.90
4002;DHT22;2015;48.670;9.060;2024-03-25T02:07:35;4.20;99.90
4002;DHT22;2015;48.670;9.060;2024-03-25T02:10:11;4.20;99.90
4002;DHT22;2015;48.670;9.060;2024-03-25T02:12:46;4.10;99.90
4002;DHT22;2015;48.670;9.060;2024-03-25T02:15:17;4.20;99.90
4002;DHT22;2015;48.670;9.060;2024-03-25T02:17:48;4.20;99.90
4002;DHT22;2015;48.670;9.060;2024-03-25T02:20:19;4.20;99.90
4002;DHT22;2015;48.670;9.060;2024-03-25T02:22:50;4.10;99.90
4002;DHT22;2015;48.670;9.060;2024-03-25T02:25:21;4.00;99.90
4002;DHT22;2015;48.670;9.060;2024-03-25T02:27:52;4.20;99.90
4002;DHT22;2015;48.670;9.060;2024-03-25T02:30:23;4.20;99.90
4002;DHT22;2015;48.670;9.060;2024-03-25T02:32:54;4.20;99.90
4002;DHT22;2015;48.670;9.060;2024-03-25T02:35:26;4.20;99.90
4002;DHT22;2015;48.670;9.060;2024-03-25T02:37:57;4.30;99.90
4002;DHT22;2015;48.670;9.060;2024-03-25T02:40:28;4.30;99.90
4002;DHT22;2015;48.670;9.060;2024-03-25T02:42:59;4.40;99.90
4002;DHT22;2015;48.670;9.060;2024-03-25T02:45:30;4.40;99.90
4002;DHT22;2015;48.670;9.060;2024-03-25T02:48:01;4.40;99.90
4002;DHT22;2015;48.670;9.060;2024-03-25T02:50:32;4.40;99.90
4002;DHT22;2015;48.670;9.060;2024-03-25T02:53:02;4.30;99.90
4002;DHT22;2015;48.670;9.060;2024-03-25T02:55:33;4.30;99.90
4002;DHT22;2015;48.670;9.060;2024-03-25T02:58:04;4.30;99.90
4002;DHT22;2015;48.670;9.060;2024-03-25T03:00:35;4.30;99.90
4002;DHT22;2015;48.670;9.060;2024-03-25T03:03:06;4.20;99.90
4002;DHT22;2015;48.670;9.060;2024-03-25T03:05:36;4.10;99.90
4002;DHT22;2015;48.670;9.060;2024-03-25T03:08:07;4.10;99.90
4002;DHT22;2015;48.670;9.060;2024-03-25T03:10:38;4.10;99.90
4002;DHT22;2015;48.670;9.060;2024-03-25T03:13:09;4.00;99.90
4002;DHT22;2015;48.670;9.060;2024-03-25T03:15:44;4.00;99.90
4002;DHT22;2015;48.670;9.060;2024-03-25T03:18:15;4.00;99.90
4002;DHT22;2015;48.670;9.060;2024-03-25T03:20:46;4.00;99.90
4002;DHT22;2015;48.670;9.060;2024-03-25T03:23:18;4.00;99.90
4002;DHT22;2015;48.670;9.060;2024-03-25T03:25:49;4.00;99.90
4002;DHT22;2015;48.670;9.060;2024-03-25T03:28:19;4.00;99.90
4002;DHT22;2015;48.670;9.060;2024-03-25T03:30:50;4.00;99.90
4002;DHT22;2015;48.670;9.060;2024-03-25T03:33:21;4.00;99.90
4002;DHT22;2015;48.670;9.060;2024-03-25T03:35:52;4.00;99.90
4002;DHT22;2015;48.670;9.060;2024-03-25T03:38:23;4.00;99.90
4002;DHT22;2015;48.670;9.060;2024-03-25T03:40:58;3.90;99.90
4002;DHT22;2015;48.670;9.060;2024-03-25T03:43:29;3.90;99.90
4002;DHT22;2015;48.670;9.060;2024-03-25T03:46:00;3.90;99.90
4002;DHT22;2015;48.670;9.060;2024-03-25T03:48:31;3.90;99.90
4002;DHT22;2015;48.670;9.060;2024-03-25T03:51:01;3.90;99.90
4002;DHT22;2015;48.670;9.060;2024-03-25T03:53:33;3.90;99.90
4002;DHT22;2015;48.670;9.060;2024-03-25T03:56:05;3.90;99.90
4002;DHT22;2015;48.670;9.060;2024-03-25T03:58:36;3.90;99.90
4002;DHT22;2015;48.670;9.060;2024-03-25T04:01:17;3.90;99.90
4002;DHT22;2015;48.670;9.060;2024-03-25T04:03:48;3.90;99.90
4002;DHT22;2015;48.670;9.060;2024-03-25T04:06:20;3.90;99.90
4002;DHT22;2015;48.670;9.060;2024-03-25T04:08:51;3.90;99.90
4002;DHT22;2015;48.670;9.060;2024-03-25T04:11:21;4.00;99.90
4002;DHT22;2015;48.670;9.060;2024-03-25T04:13:52;4.00;99.90
4002;DHT22;2015;48.670;9.060;2024-03-25T04:16:23;4.00;99.90
4002;DHT22;2015;48.670;9.060;2024-03-25T04:18:54;4.00;99.90
4002;DHT22;2015;48.670;9.060;2024-03-25T04:21:26;4.10;99.90
4002;DHT22;2015;48.670;9.060;2024-03-25T04:23:57;4.10;99.90
4002;DHT22;2015;48.670;9.060;2024-03-25T04:26:28;4.10;99.90
4002;DHT22;2015;48.670;9.060;2024-03-25T04:28:59;4.20;99.90
4002;DHT22;2015;48.670;9.060;2024-03-25T04:31:30;4.20;99.90
4002;DHT22;2015;48.670;9.060;2024-03-25T04:34:01;4.10;99.90
4002;DHT22;2015;48.670;9.060;2024-03-25T04:36:32;4.10;99.90
4002;DHT22;2015;48.670;9.060;2024-03-25T04:39:03;4.10;99.90
4002;DHT22;2015;48.670;9.060;2024-03-25T04:41:34;4.10;99.90
4002;DHT22;2015;48.670;9.060;2024-03-25T04:44:05;4.00;99.90
4002;DHT22;2015;48.670;9.060;2024-03-25T04:46:35;4.00;99.90
4002;DHT22;2015;48.670;9.060;2024-03-25T04:49:06;3.90;99.90
4002;DHT22;2015;48.670;9.060;2024-03-25T04:51:37;3.90;99.90
4002;DHT22;2015;48.670;9.060;2024-03-25T04:54:08;3.90;99.90
4002;DHT22;2015;48.670;9.060;2024-03-25T04:56:39;3.80;99.90
4002;DHT22;2015;48.670;9.060;2024-03-25T04:59:09;3.80;99.90
4002;DHT22;2015;48.670;9.060;2024-03-25T05:01:40;3.80;99.90
4002;DHT22;2015;48.670;9.060;2024-03-25T05:04:11;3.80;99.90
4002;DHT22;2015;48.670;9.060;2024-03-25T05:06:42;3.80;99.90
4002;DHT22;2015;48.670;9.060;2024-03-25T05:09:13;3.70;99.90
4002;DHT22;2015;48.670;9.060;2024-03-25T05:11:44;3.70;99.90
4002;DHT22;2015;48.670;9.060;2024-03-25T05:14:14;3.60;99.90
4002;DHT22;2015;48.670;9.060;2024-03-25T05:16:45;3.60;99.90
4002;DHT22;2015;48.670;9.060;2024-03-25T05:19:16;3.60;99.90
4002;DHT22;2015;48.670;9.060;2024-03-25T05:21:47;3.60;99.90
4002;DHT22;2015;48.670;9.060;2024-03-25T05:24:18;3.60;99.90
4002;DHT22;2015;48.670;9.060;2024-03-25T05:26:48;3.60;99.90
4002;DHT22;2015;48.670;9.060;2024-03-25T05:29:19;3.60;99.90
4002;DHT22;2015;48.670;9.060;2024-03-25T05:32:00;3.60;99.90
4002;DHT22;2015;48.670;9.060;2024-03-25T05:34:31;3.60;99.90
4002;DHT22;2015;48.670;9.060;2024-03-25T05:37:02;3.70;99.90
4002;DHT22;2015;48.670;9.060;2024-03-25T05:39:33;3.70;99.90
4002;DHT22;2015;48.670;9.060;2024-03-25T05:42:04;3.70;99.90
4002;DHT22;2015;48.670;9.060;2024-03-25T05:44:35;3.70;99.90
4002;DHT22;2015;48.670;9.060;2024-03-25T05:47:06;3.70;99.90
4002;DHT22;2015;48.670;9.060;2024-03-25T05:49:36;3.70;99.90
4002;DHT22;2015;48.670;9.060;2024-03-25T05:52:07;3.80;99.90
4002;DHT22;2015;48.670;9.060;2024-03-25T05:54:38;3.90;99.90
4002;DHT22;2015;48.670;9.060;2024-03-25T05:57:08;3.90;99.90
4002;DHT22;2015;48.670;9.060;2024-03-25T05:59:39;4.00;99.90
4002;DHT22;2015;48.670;9.060;2024-03-25T06:02:10;4.00;99.90
4002;DHT22;2015;48.670;9.060;2024-03-25T06:04:41;4.00;99.90
4002;DHT22;2015;48.670;9.060;2024-03-25T06:07:11;4.00;99.90
4002;DHT22;2015;48.670;9.060;2024-03-25T06:09:42;4.00;99.90
4002;DHT22;2015;48.670;9.060;2024-03-25T06:12:13;4.00;99.90
4002;DHT22;2015;48.670;9.060;2024-03-25T06:14:44;4.00;99.90
4002;DHT22;2015;48.670;9.060;2024-03-25T06:17:15;4.10;99.90
4002;DHT22;2015;48.670;9.060;2024-03-25T06:19:46;4.10;99.90
4002;DHT22;2015;48.670;9.060;2024-03-25T06:22:17;4.10;99.90
4002;DHT22;2015;48.670;9.060;2024-03-25T06:24:47;4.20;99.90
4002;DHT22;2015;48.670;9.060;2024-03-25T06:27:21;4.20;99.90
4002;DHT22;2015;48.670;9.060;2024-03-25T06:29:52;4.20;99.90
4002;DHT22;2015;48.670;9.060;2024-03-25T06:32:42;4.20;99.90
4002;DHT22;2015;48.670;9.060;2024-03-25T06:35:32;4.20;99.90
4002;DHT22;2015;48.670;9.060;2024-03-25T06:38:02;4.30;99.90
4002;DHT22;2015;48.670;9.060;2024-03-25T06:40:33;4.40;99.90
4002;DHT22;2015;48.670;9.060;2024-03-25T06:43:04;4.30;99.90
4002;DHT22;2015;48.670;9.060;2024-03-25T06:45:35;4.40;99.90
4002;DHT22;2015;48.670;9.060;2024-03-25T06:48:06;4.50;99.90
4002;DHT22;2015;48.670;9.060;2024-03-25T06:50:37;4.50;99.90
4002;DHT22;2015;48.670;9.060;2024-03-25T06:53:08;4.60;99.90
4002;DHT22;2015;48.670;9.060;2024-03-25T06:55:39;4.60;99.90
4002;DHT22;2015;48.670;9.060;2024-03-25T06:58:09;4.70;99.90
4002;DHT22;2015;48.670;9.060;2024-03-25T07:00:40;4.70;99.90
4002;DHT22;2015;48.670;9.060;2024-03-25T07:03:11;4.80;99.90
4002;DHT22;2015;48.670;9.060;2024-03-25T07:05:44;4.80;99.90
4002;DHT22;2015;48.670;9.060;2024-03-25T07:08:16;4.80;99.90
4002;DHT22;2015;48.670;9.060;2024-03-25T07:10:47;4.90;99.90
4002;DHT22;2015;48.670;9.060;2024-03-25T07:13:17;4.90;99.90
4002;DHT22;2015;48.670;9.060;2024-03-25T07:15:49;5.00;99.90
4002;DHT22;2015;48.670;9.060;2024-03-25T07:18:19;5.10;99.90
4002;DHT22;2015;48.670;9.060;2024-03-25T07:20:51;5.20;99.90
4002;DHT22;2015;48.670;9.060;2024-03-25T07:23:22;5.30;99.90
4002;DHT22;2015;48.670;9.060;2024-03-25T07:25:52;5.30;99.90
4002;DHT22;2015;48.670;9.060;2024-03-25T07:28:23;5.40;99.90
4002;DHT22;2015;48.670;9.060;2024-03-25T07:30:54;5.40;99.90
4002;DHT22;2015;48.670;9.060;2024-03-25T07:33:25;5.40;99.90
4002;DHT22;2015;48.670;9.060;2024-03-25T07:35:56;5.40;99.90
4002;DHT22;2015;48.670;9.060;2024-03-25T07:38:27;5.40;99.90
4002;DHT22;2015;48.670;9.060;2024-03-25T07:41:06;5.50;99.90
4002;DHT22;2015;48.670;9.060;2024-03-25T07:43:37;5.60;99.90
4002;DHT22;2015;48.670;9.060;2024-03-25T07:46:07;5.50;99.90
4002;DHT22;2015;48.670;9.060;2024-03-25T07:48:38;5.60;99.90
4002;DHT22;2015;48.670;9.060;2024-03-25T07:51:10;5.60;99.90
4002;DHT22;2015;48.670;9.060;2024-03-25T07:53:41;5.60;99.90
4002;DHT22;2015;48.670;9.060;2024-03-25T07:56:12;5.70;99.90
4002;DHT22;2015;48.670;9.060;2024-03-25T07:58:43;5.80;99.90
4002;DHT22;2015;48.670;9.060;2024-03-25T08:01:13;5.90;99.90
4002;DHT22;2015;48.670;9.060;2024-03-25T08:03:44;6.00;99.90
4002;DHT22;2015;48.670;9.060;2024-03-25T08:06:15;6.10;99.90
4002;DHT22;2015;48.670;9.060;2024-03-25T08:08:46;6.20;99.90
4002;DHT22;2015;48.670;9.060;2024-03-25T08:11:16;6.30;99.90
4002;DHT22;2015;48.670;9.060;2024-03-25T08:13:47;6.50;99.90
4002;DHT22;2015;48.670;9.060;2024-03-25T08:16:18;6.60;99.90
4002;DHT22;2015;48.670;9.060;2024-03-25T08:18:50;6.70;99.90
4002;DHT22;2015;48.670;9.060;2024-03-25T08:21:22;6.80;99.90
4002;DHT22;2015;48.670;9.060;2024-03-25T08:23:53;6.90;99.90
4002;DHT22;2015;48.670;9.060;2024-03-25T08:26:24;6.90;99.90
4002;DHT22;2015;48.670;9.060;2024-03-25T08:28:55;6.90;99.90
4002;DHT22;2015;48.670;9.060;2024-03-25T08:31:25;7.00;99.90
4002;DHT22;2015;48.670;9.060;2024-03-25T08:33:56;7.10;99.90
4002;DHT22;2015;48.670;9.060;2024-03-25T08:36:27;7.30;99.90
4002;DHT22;2015;48.670;9.060;2024-03-25T08:38:58;7.40;99.90
4002;DHT22;2015;48.670;9.060;2024-03-25T08:41:28;7.30;99.90
4002;DHT22;2015;48.670;9.060;2024-03-25T08:43:59;7.40;99.90
4002;DHT22;2015;48.670;9.060;2024-03-25T08:46:30;7.30;99.90
4002;DHT22;2015;48.670;9.060;2024-03-25T08:49:01;7.40;99.90
4002;DHT22;2015;48.670;9.060;2024-03-25T08:51:31;7.50;99.90
4002;DHT22;2015;48.670;9.060;2024-03-25T08:54:02;7.60;99.90
4002;DHT22;2015;48.670;9.060;2024-03-25T08:56:34;7.60;99.90
4002;DHT22;2015;48.670;9.060;2024-03-25T08:59:05;7.80;99.90
4002;DHT22;2015;48.670;9.060;2024-03-25T09:01:36;7.90;99.90
4002;DHT22;2015;48.670;9.060;2024-03-25T09:04:07;8.00;99.90
4002;DHT22;2015;48.670;9.060;2024-03-25T09:06:38;8.10;99.90
4002;DHT22;2015;48.670;9.060;2024-03-25T09:09:09;8.20;99.90
4002;DHT22;2015;48.670;9.060;2024-03-25T09:11:58;8.30;99.90
4002;DHT22;2015;48.670;9.060;2024-03-25T09:14:29;8.20;99.90
4002;DHT22;2015;48.670;9.060;2024-03-25T09:17:00;8.30;99.90
4002;DHT22;2015;48.670;9.060;2024-03-25T09:19:31;8.60;99.90
4002;DHT22;2015;48.670;9.060;2024-03-25T09:22:01;9.00;99.90
4002;DHT22;2015;48.670;9.060;2024-03-25T09:24:32;9.10;99.90
4002;DHT22;2015;48.670;9.060;2024-03-25T09:27:03;8.80;99.90
4002;DHT22;2015;48.670;9.060;2024-03-25T09:29:35;8.70;99.90
4002;DHT22;2015;48.670;9.060;2024-03-25T09:32:06;8.80;99.90
4002;DHT22;2015;48.670;9.060;2024-03-25T09:34:37;8.90;99.90
4002;DHT22;2015;48.670;9.060;2024-03-25T09:37:08;8.90;99.90
4002;DHT22;2015;48.670;9.060;2024-03-25T09:39:39;8.70;99.90
4002;DHT22;2015;48.670;9.060;2024-03-25T09:42:14;8.70;99.90
4002;DHT22;2015;48.670;9.060;2024-03-25T09:44:46;8.70;99.90
4002;DHT22;2015;48.670;9.060;2024-03-25T09:47:16;8.90;99.90
4002;DHT22;2015;48.670;9.060;2024-03-25T09:49:48;9.30;99.90
4002;DHT22;2015;48.670;9.060;2024-03-25T09:52:19;9.80;99.90
4002;DHT22;2015;48.670;9.060;2024-03-25T09:54:50;10.20;99.90
4002;DHT22;2015;48.670;9.060;2024-03-25T09:57:21;11.70;99.90
4002;DHT22;2015;48.670;9.060;2024-03-25T09:59:52;14.00;99.90
4002;DHT22;2015;48.670;9.060;2024-03-25T10:02:24;15.80;99.90
4002;DHT22;2015;48.670;9.060;2024-03-25T10:04:57;16.80;96.60
4002;DHT22;2015;48.670;9.060;2024-03-25T10:07:27;15.50;97.30
4002;DHT22;2015;48.670;9.060;2024-03-25T10:09:58;14.40;99.90
4002;DHT22;2015;48.670;9.060;2024-03-25T10:12:29;13.20;99.90
4002;DHT22;2015;48.670;9.060;2024-03-25T10:15:00;12.50;99.90
4002;DHT22;2015;48.670;9.060;2024-03-25T10:17:31;12.10;99.90
4002;DHT22;2015;48.670;9.060;2024-03-25T10:20:02;11.90;99.90
4002;DHT22;2015;48.670;9.060;2024-03-25T10:22:44;11.70;99.90
4002;DHT22;2015;48.670;9.060;2024-03-25T10:25:27;11.40;99.90
4002;DHT22;2015;48.670;9.060;2024-03-25T10:28:02;11.20;99.90
4002;DHT22;2015;48.670;9.060;2024-03-25T10:30:33;11.00;99.90
4002;DHT22;2015;48.670;9.060;2024-03-25T10:33:05;10.80;99.90
4002;DHT22;2015;48.670;9.060;2024-03-25T10:35:39;10.30;99.90
4002;DHT22;2015;48.670;9.060;2024-03-25T10:38:11;10.10;99.90
4002;DHT22;2015;48.670;9.060;2024-03-25T10:40:41;9.90;99.90
4002;DHT22;2015;48.670;9.060;2024-03-25T10:43:14;9.90;99.90
4002;DHT22;2015;48.670;9.060;2024-03-25T10:45:49;10.00;99.90
4002;DHT22;2015;48.670;9.060;2024-03-25T10:48:31;10.20;99.90
4002;DHT22;2015;48.670;9.060;2024-03-25T10:51:03;10.40;99.90
4002;DHT22;2015;48.670;9.060;2024-03-25T10:53:37;10.50;99.90
4002;DHT22;2015;48.670;9.060;2024-03-25T10:56:10;10.70;99.90
4002;DHT22;2015;48.670;9.060;2024-03-25T10:58:43;11.50;99.90
4002;DHT22;2015;48.670;9.060;2024-03-25T11:01:18;13.00;99.90
4002;DHT22;2015;48.670;9.060;2024-03-25T11:03:49;13.10;99.90
4002;DHT22;2015;48.670;9.060;2024-03-25T11:06:20;13.10;99.90
4002;DHT22;2015;48.670;9.060;2024-03-25T11:08:58;12.60;99.90
4002;DHT22;2015;48.670;9.060;2024-03-25T11:11:35;11.80;99.90
4002;DHT22;2015;48.670;9.060;2024-03-25T11:14:15;11.20;99.90
4002;DHT22;2015;48.670;9.060;2024-03-25T11:16:53;11.30;99.90
4002;DHT22;2015;48.670;9.060;2024-03-25T11:19:29;11.60;99.90
4002;DHT22;2015;48.670;9.060;2024-03-25T11:22:08;11.70;99.90
4002;DHT22;2015;48.670;9.060;2024-03-25T11:24:43;12.10;99.90
4002;DHT22;2015;48.670;9.060;2024-03-25T11:27:14;13.30;99.90
4002;DHT22;2015;48.670;9.060;2024-03-25T11:29:45;14.40;99.90
4002;DHT22;2015;48.670;9.060;2024-03-25T11:32:16;15.00;96.70
4002;DHT22;2015;48.670;9.060;2024-03-25T11:34:50;14.50;98.50
4002;DHT22;2015;48.670;9.060;2024-03-25T11:37:21;13.60;99.20
4002;DHT22;2015;48.670;9.060;2024-03-25T11:40:01;12.50;99.90
4002;DHT22;2015;48.670;9.060;2024-03-25T11:42:34;12.10;99.90
4002;DHT22;2015;48.670;9.060;2024-03-25T11:45:06;12.00;99.90
4002;DHT22;2015;48.670;9.060;2024-03-25T11:47:37;12.00;99.90
4002;DHT22;2015;48.670;9.060;2024-03-25T11:50:10;11.90;99.90
4002;DHT22;2015;48.670;9.060;2024-03-25T11:52:42;11.70;99.90
4002;DHT22;2015;48.670;9.060;2024-03-25T11:55:17;11.50;99.90
4002;DHT22;2015;48.670;9.060;2024-03-25T11:57:55;11.60;99.90
4002;DHT22;2015;48.670;9.060;2024-03-25T12:00:26;11.70;99.90
4002;DHT22;2015;48.670;9.060;2024-03-25T12:02:56;11.80;99.90
4002;DHT22;2015;48.670;9.060;2024-03-25T12:05:27;11.60;99.90
4002;DHT22;2015;48.670;9.060;2024-03-25T12:07:58;11.10;99.90
4002;DHT22;2015;48.670;9.060;2024-03-25T12:10:29;11.00;99.90
4002;DHT22;2015;48.670;9.060;2024-03-25T12:13:19;11.00;99.90
4002;DHT22;2015;48.670;9.060;2024-03-25T12:15:50;11.10;99.90
4002;DHT22;2015;48.670;9.060;2024-03-25T12:18:22;10.90;99.90
4002;DHT22;2015;48.670;9.060;2024-03-25T12:20:52;10.80;99.90
4002;DHT22;2015;48.670;9.060;2024-03-25T12:23:23;10.80;99.90
4002;DHT22;2015;48.670;9.060;2024-03-25T12:26:00;10.60;99.90
4002;DHT22;2015;48.670;9.060;2024-03-25T12:28:31;10.50;99.90
4002;DHT22;2015;48.670;9.060;2024-03-25T12:31:02;10.60;99.90
4002;DHT22;2015;48.670;9.060;2024-03-25T12:33:43;10.70;99.90
4002;DHT22;2015;48.670;9.060;2024-03-25T12:36:14;10.70;99.90
4002;DHT22;2015;48.670;9.060;2024-03-25T12:38:54;10.90;99.90
4002;DHT22;2015;48.670;9.060;2024-03-25T12:41:25;10.90;99.90
4002;DHT22;2015;48.670;9.060;2024-03-25T12:43:56;10.80;99.90
4002;DHT22;2015;48.670;9.060;2024-03-25T12:46:27;10.70;99.90
4002;DHT22;2015;48.670;9.060;2024-03-25T12:48:57;10.60;99.90
4002;DHT22;2015;48.670;9.060;2024-03-25T12:51:28;10.80;99.90
4002;DHT22;2015;48.670;9.060;2024-03-25T12:53:59;11.00;99.90
4002;DHT22;2015;48.670;9.060;2024-03-25T12:56:29;11.20;99.90
4002;DHT22;2015;48.670;9.060;2024-03-25T12:59:00;11.30;99.90
4002;DHT22;2015;48.670;9.060;2024-03-25T13:01:31;11.30;99.90
4002;DHT22;2015;48.670;9.060;2024-03-25T13:04:02;11.30;99.90
4002;DHT22;2015;48.670;9.060;2024-03-25T13:06:33;11.00;99.90
4002;DHT22;2015;48.670;9.060;2024-03-25T13:09:03;11.00;99.90
4002;DHT22;2015;48.670;9.060;2024-03-25T13:11:34;11.20;99.90
4002;DHT22;2015;48.670;9.060;2024-03-25T13:14:05;11.30;99.30
4002;DHT22;2015;48.670;9.060;2024-03-25T13:16:38;11.30;97.80
4002;DHT22;2015;48.670;9.060;2024-03-25T13:19:09;11.20;99.90
4002;DHT22;2015;48.670;9.060;2024-03-25T13:21:40;11.10;98.60
4002;DHT22;2015;48.670;9.060;2024-03-25T13:24:11;10.90;97.70
4002;DHT22;2015;48.670;9.060;2024-03-25T13:26:42;11.00;99.90
4002;DHT22;2015;48.670;9.060;2024-03-25T13:29:13;11.30;99.90
4002;DHT22;2015;48.670;9.060;2024-03-25T13:31:43;11.40;99.90
4002;DHT22;2015;48.670;9.060;2024-03-25T13:34:14;11.00;99.60
4002;DHT22;2015;48.670;9.060;2024-03-25T13:36:45;10.80;99.90
4002;DHT22;2015;48.670;9.060;2024-03-25T13:39:16;10.90;99.90
4002;DHT22;2015;48.670;9.060;2024-03-25T13:41:47;10.80;99.90
4002;DHT22;2015;48.670;9.060;2024-03-25T13:44:18;10.70;99.90
4002;DHT22;2015;48.670;9.060;2024-03-25T13:46:49;10.60;99.90
4002;DHT22;2015;48.670;9.060;2024-03-25T13:49:21;10.60;99.90
4002;DHT22;2015;48.670;9.060;2024-03-25T13:51:57;10.70;99.90
4002;DHT22;2015;48.670;9.060;2024-03-25T13:54:31;10.60;99.90
4002;DHT22;2015;48.670;9.060;2024-03-25T13:57:02;10.60;99.90
4002;DHT22;2015;48.670;9.060;2024-03-25T13:59:33;10.90;99.90
4002;DHT22;2015;48.670;9.060;2024-03-25T14:02:05;10.80;99.90
4002;DHT22;2015;48.670;9.060;2024-03-25T14:04:36;10.80;99.90
4002;DHT22;2015;48.670;9.060;2024-03-25T14:07:06;10.90;99.90
4002;DHT22;2015;48.670;9.060;2024-03-25T14:09:37;10.80;99.90
4002;DHT22;2015;48.670;9.060;2024-03-25T14:12:08;10.80;99.90
4002;DHT22;2015;48.670;9.060;2024-03-25T14:14:38;10.60;99.90
4002;DHT22;2015;48.670;9.060;2024-03-25T14:17:09;10.60;99.90
4002;DHT22;2015;48.670;9.060;2024-03-25T14:19:40;10.70;99.90
4002;DHT22;2015;48.670;9.060;2024-03-25T14:22:11;10.60;99.90
4002;DHT22;2015;48.670;9.060;2024-03-25T14:24:42;10.80;99.90
4002;DHT22;2015;48.670;9.060;2024-03-25T14:27:13;11.00;99.90
4002;DHT22;2015;48.670;9.060;2024-03-25T14:29:44;10.90;99.90
4002;DHT22;2015;48.670;9.060;2024-03-25T14:32:15;10.80;99.90
4002;DHT22;2015;48.670;9.060;2024-03-25T14:34:49;10.60;99.90
4002;DHT22;2015;48.670;9.060;2024-03-25T14:37:19;10.70;99.90
4002;DHT22;2015;48.670;9.060;2024-03-25T14:39:51;10.60;99.90
4002;DHT22;2015;48.670;9.060;2024-03-25T14:42:22;10.50;99.90
4002;DHT22;2015;48.670;9.060;2024-03-25T14:44:52;10.50;99.90
4002;DHT22;2015;48.670;9.060;2024-03-25T14:47:23;10.80;99.90
4002;DHT22;2015;48.670;9.060;2024-03-25T14:49:55;10.80;99.90
4002;DHT22;2015;48.670;9.060;2024-03-25T14:52:25;10.70;99.90
4002;DHT22;2015;48.670;9.060;2024-03-25T14:54:56;10.70;99.90
4002;DHT22;2015;48.670;9.060;2024-03-25T14:57:27;10.70;99.90
4002;DHT22;2015;48.670;9.060;2024-03-25T14:59:58;10.70;99.90
4002;DHT22;2015;48.670;9.060;2024-03-25T15:02:28;10.60;99.90
4002;DHT22;2015;48.670;9.060;2024-03-25T15:04:59;10.60;99.90
4002;DHT22;2015;48.670;9.060;2024-03-25T15:07:30;10.50;99.90
4002;DHT22;2015;48.670;9.060;2024-03-25T15:10:01;10.70;99.90
4002;DHT22;2015;48.670;9.060;2024-03-25T15:12:31;10.90;99.90
4002;DHT22;2015;48.670;9.060;2024-03-25T15:15:03;10.90;99.90
4002;DHT22;2015;48.670;9.060;2024-03-25T15:17:37;10.80;99.90
4002;DHT22;2015;48.670;9.060;2024-03-25T15:20:08;10.80;99.90
4002;DHT22;2015;48.670;9.060;2024-03-25T15:22:39;10.70;99.90
4002;DHT22;2015;48.670;9.060;2024-03-25T15:25:13;10.70;99.90
4002;DHT22;2015;48.670;9.060;2024-03-25T15:27:43;10.80;99.90
4002;DHT22;2015;48.670;9.060;2024-03-25T15:30:14;10.90;99.90
4002;DHT22;2015;48.670;9.060;2024-03-25T15:32:45;10.80;99.90
4002;DHT22;2015;48.670;9.060;2024-03-25T15:35:16;10.80;99.90
4002;DHT22;2015;48.670;9.060;2024-03-25T15:37:46;10.80;99.90
4002;DHT22;2015;48.670;9.060;2024-03-25T15:40:17;10.70;99.90
4002;DHT22;2015;48.670;9.060;2024-03-25T15:42:48;10.70;99.90
4002;DHT22;2015;48.670;9.060;2024-03-25T15:45:19;10.80;99.90
4002;DHT22;2015;48.670;9.060;2024-03-25T15:47:50;10.60;99.90
4002;DHT22;2015;48.670;9.060;2024-03-25T15:50:21;10.50;99.90
4002;DHT22;2015;48.670;9.060;2024-03-25T15:52:52;10.50;99.90
4002;DHT22;2015;48.670;9.060;2024-03-25T15:55:23;10.60;99.90
4002;DHT22;2015;48.670;9.060;2024-03-25T15:57:54;10.60;99.90
4002;DHT22;2015;48.670;9.060;2024-03-25T16:00:25;10.70;99.90
4002;DHT22;2015;48.670;9.060;2024-03-25T16:02:55;10.60;99.90
4002;DHT22;2015;48.670;9.060;2024-03-25T16:05:28;10.60;99.90
4002;DHT22;2015;48.670;9.060;2024-03-25T16:07:59;10.50;99.20
4002;DHT22;2015;48.670;9.060;2024-03-25T16:10:31;10.40;99.40
4002;DHT22;2015;48.670;9.060;2024-03-25T16:13:04;10.30;99.90
4002;DHT22;2015;48.670;9.060;2024-03-25T16:15:34;10.40;99.90
4002;DHT22;2015;48.670;9.060;2024-03-25T16:18:05;10.30;99.90
4002;DHT22;2015;48.670;9.060;2024-03-25T16:20:37;10.20;99.90
4002;DHT22;2015;48.670;9.060;2024-03-25T16:23:08;10.00;99.90
4002;DHT22;2015;48.670;9.060;2024-03-25T16:25:39;10.10;99.90
4002;DHT22;2015;48.670;9.060;2024-03-25T16:28:11;10.10;99.90
4002;DHT22;2015;48.670;9.060;2024-03-25T16:30:42;10.20;99.90
4002;DHT22;2015;48.670;9.060;2024-03-25T16:33:13;10.20;99.90
4002;DHT22;2015;48.670;9.060;2024-03-25T16:35:43;10.10;99.90
4002;DHT22;2015;48.670;9.060;2024-03-25T16:38:14;10.00;99.30
4002;DHT22;2015;48.670;9.060;2024-03-25T16:40:45;9.90;99.90